createdAt,value
2023-04-23T00:02:12.413Z,48.01
2023-04-23T00:04:39.994Z,47.94
2023-04-23T00:07:07.293Z,48.15
2023-04-23T00:09:34.872Z,48.23
2023-04-23T00:12:02.423Z,47.97
2023-04-23T00:14:29.480Z,48.32
2023-04-23T00:16:56.652Z,48.52
2023-04-23T00:19:23.973Z,48.44
2023-04-23T00:21:50.864Z,48.49
2023-04-23T00:24:17.700Z,48.80
2023-04-23T00:26:44.503Z,48.91
2023-04-23T00:29:11.360Z,49.05
2023-04-23T00:31:38.273Z,48.51
2023-04-23T00:34:05.120Z,48.85
2023-04-23T00:36:31.901Z,48.88
2023-04-23T00:38:59.139Z,48.93
2023-04-23T00:41:27.537Z,49.34
2023-04-23T00:43:54.577Z,49.12
2023-04-23T00:46:22.224Z,49.15
2023-04-23T00:48:49.626Z,49.38
2023-04-23T00:51:16.859Z,49.51
2023-04-23T00:53:43.674Z,49.54
2023-04-23T00:56:10.790Z,49.71
2023-04-23T00:58:38.082Z,49.33
2023-04-23T01:01:05.177Z,49.74
2023-04-23T01:03:32.914Z,49.52
2023-04-23T01:06:00.107Z,49.81
2023-04-23T01:08:26.984Z,49.75
2023-04-23T01:10:54.592Z,49.61
2023-04-23T01:13:22.624Z,49.73
2023-04-23T01:15:49.863Z,49.86
2023-04-23T01:18:16.699Z,49.87
2023-04-23T01:20:44.035Z,49.81
2023-04-23T01:23:11.194Z,49.80
2023-04-23T01:25:38.333Z,50.00
2023-04-23T01:28:06.847Z,50.06
2023-04-23T01:30:34.111Z,49.95
2023-04-23T01:33:02.244Z,49.98
2023-04-23T01:35:30.196Z,50.13
2023-04-23T01:37:57.632Z,50.15
2023-04-23T01:40:24.484Z,50.10
2023-04-23T01:42:51.364Z,50.63
2023-04-23T01:45:20.235Z,50.66
2023-04-23T01:47:50.697Z,50.46
2023-04-23T01:50:17.704Z,50.80
2023-04-23T01:52:45.914Z,50.55
2023-04-23T01:55:12.939Z,50.92
2023-04-23T01:57:40.234Z,50.93
2023-04-23T02:00:08.536Z,50.63
2023-04-23T02:02:42.816Z,50.97
2023-04-23T02:05:12.532Z,50.71
2023-04-23T02:07:39.394Z,51.16
2023-04-23T02:10:07.070Z,50.87
2023-04-23T02:12:33.881Z,51.03
2023-04-23T02:15:01.238Z,51.17
2023-04-23T02:17:28.458Z,51.42
2023-04-23T02:19:56.250Z,51.60
2023-04-23T02:22:25.453Z,51.24
2023-04-23T02:24:53.210Z,51.60
2023-04-23T02:27:21.167Z,51.29
2023-04-23T02:29:49.054Z,51.72
2023-04-23T02:32:16.234Z,51.61
2023-04-23T02:34:43.423Z,51.52
2023-04-23T02:37:10.624Z,51.89
2023-04-23T02:39:39.355Z,52.32
2023-04-23T02:42:06.582Z,51.99
2023-04-23T02:44:33.504Z,52.82
2023-04-23T02:47:01.301Z,54.12
2023-04-23T02:49:28.207Z,55.11
2023-04-23T02:51:55.149Z,55.54
2023-04-23T02:54:22.046Z,56.29
2023-04-23T02:56:49.285Z,56.15
2023-04-23T02:59:16.247Z,56.76
2023-04-23T03:01:43.098Z,57.09
2023-04-23T03:04:12.559Z,57.56
2023-04-23T03:06:39.517Z,58.17
2023-04-23T03:09:06.846Z,58.91
2023-04-23T03:11:33.886Z,59.18
2023-04-23T03:14:01.855Z,59.59
2023-04-23T03:16:30.160Z,59.73
2023-04-23T03:18:57.165Z,60.30
2023-04-23T03:21:24.176Z,60.67
2023-04-23T03:23:50.988Z,61.04
2023-04-23T03:26:17.802Z,61.24
2023-04-23T03:28:44.709Z,61.58
2023-04-23T03:31:11.737Z,62.07
2023-04-23T03:33:38.737Z,61.79
2023-04-23T03:36:05.861Z,61.91
2023-04-23T03:38:33.497Z,62.36
2023-04-23T03:41:02.206Z,62.87
2023-04-23T03:43:29.091Z,63.05
2023-04-23T03:46:16.491Z,63.15
2023-04-23T03:48:43.311Z,63.31
2023-04-23T03:51:16.989Z,63.34
2023-04-23T03:53:47.040Z,63.35
2023-04-23T03:56:39.611Z,63.34
2023-04-23T03:59:18.913Z,63.69
2023-04-23T04:01:51.054Z,63.81
2023-04-23T04:04:18.821Z,63.86
2023-04-23T04:06:46.165Z,63.95
2023-04-23T04:09:12.983Z,64.20
2023-04-23T04:11:41.216Z,64.36
2023-04-23T04:14:09.121Z,64.26
2023-04-23T04:16:36.101Z,64.48
2023-04-23T04:19:03.660Z,64.32
2023-04-23T04:21:30.460Z,64.36
2023-04-23T04:23:57.256Z,64.78
2023-04-23T04:26:24.134Z,64.65
2023-04-23T04:28:51.667Z,64.81
2023-04-23T04:31:20.684Z,65.06
2023-04-23T04:33:48.148Z,65.24
2023-04-23T04:36:14.877Z,65.29
2023-04-23T04:38:41.970Z,65.38
2023-04-23T04:41:08.700Z,65.62
2023-04-23T04:43:35.510Z,66.08
2023-04-23T04:46:02.289Z,66.38
2023-04-23T04:48:29.055Z,66.59
2023-04-23T04:50:55.866Z,66.51
2023-04-23T04:53:22.685Z,66.45
2023-04-23T04:55:49.653Z,66.45
2023-04-23T04:58:16.515Z,66.35
2023-04-23T05:00:43.534Z,66.79
2023-04-23T05:03:12.592Z,66.62
2023-04-23T05:05:40.949Z,66.55
2023-04-23T05:08:08.838Z,66.66
2023-04-23T05:10:37.393Z,66.58
2023-04-23T05:13:04.228Z,66.67
2023-04-23T05:15:31.000Z,66.74
2023-04-23T05:17:57.763Z,66.66
2023-04-23T05:20:24.605Z,67.16
2023-04-23T05:22:51.526Z,67.28
2023-04-23T05:25:18.254Z,67.07
2023-04-23T05:27:45.041Z,67.23
2023-04-23T05:30:12.561Z,67.41
2023-04-23T05:32:39.757Z,67.68
2023-04-23T05:35:07.335Z,68.00
2023-04-23T05:37:35.225Z,67.74
2023-04-23T05:40:02.950Z,68.17
2023-04-23T05:42:32.329Z,68.06
2023-04-23T05:44:59.164Z,67.89
2023-04-23T05:47:25.977Z,67.77
2023-04-23T05:49:52.927Z,67.65
2023-04-23T05:52:19.767Z,67.84
2023-04-23T05:54:46.619Z,67.93
2023-04-23T05:57:13.552Z,67.85
2023-04-23T05:59:40.354Z,68.21
2023-04-23T06:02:08.633Z,68.32
2023-04-23T06:04:36.637Z,68.18
2023-04-23T06:07:04.284Z,68.62
2023-04-23T06:09:31.103Z,68.82
2023-04-23T06:11:57.953Z,68.83
2023-04-23T06:14:24.707Z,68.82
2023-04-23T06:16:51.503Z,69.20
2023-04-23T06:19:18.349Z,68.93
2023-04-23T06:21:45.161Z,69.33
2023-04-23T06:24:11.970Z,69.12
2023-04-23T06:26:39.180Z,69.38
2023-04-23T06:29:12.829Z,69.12
2023-04-23T06:31:55.431Z,69.28
2023-04-23T06:34:22.305Z,68.91
2023-04-23T06:36:50.348Z,69.16
2023-04-23T06:39:17.208Z,69.00
2023-04-23T06:41:44.052Z,69.08
2023-04-23T06:44:32.286Z,68.75
2023-04-23T06:46:59.087Z,68.62
2023-04-23T06:49:26.971Z,68.85
2023-04-23T06:51:54.535Z,68.43
2023-04-23T06:54:22.676Z,68.67
2023-04-23T06:56:49.563Z,68.67
2023-04-23T06:59:16.309Z,68.66
2023-04-23T07:01:48.805Z,69.02
2023-04-23T07:04:16.101Z,69.29
2023-04-23T07:06:42.931Z,69.21
2023-04-23T07:09:09.974Z,69.08
2023-04-23T07:11:37.279Z,69.33
2023-04-23T07:14:04.204Z,69.55
2023-04-23T07:16:33.768Z,69.44
2023-04-23T07:19:03.447Z,69.55
2023-04-23T07:21:30.396Z,69.96
2023-04-23T07:23:58.404Z,70.60
2023-04-23T07:26:25.825Z,71.05
2023-04-23T07:28:52.960Z,71.22
2023-04-23T07:31:20.971Z,71.36
2023-04-23T07:33:48.017Z,71.92
2023-04-23T07:36:14.906Z,72.67
2023-04-23T07:38:42.020Z,73.32
2023-04-23T07:41:08.964Z,73.64
2023-04-23T07:43:35.771Z,74.25
2023-04-23T07:46:02.752Z,74.77
2023-04-23T07:48:29.586Z,75.40
2023-04-23T07:50:56.801Z,75.65
2023-04-23T07:53:23.662Z,75.87
2023-04-23T07:55:50.594Z,75.93
2023-04-23T07:58:17.555Z,75.87
2023-04-23T08:00:44.402Z,76.18
2023-04-23T08:03:11.312Z,76.53
2023-04-23T08:05:39.386Z,76.75
2023-04-23T08:08:06.287Z,76.91
2023-04-23T08:10:33.106Z,76.78
2023-04-23T08:13:00.001Z,76.89
2023-04-23T08:15:27.128Z,77.18
2023-04-23T08:17:53.949Z,77.34
2023-04-23T08:20:20.886Z,77.33
2023-04-23T08:22:47.720Z,77.38
2023-04-23T08:25:14.590Z,77.46
2023-04-23T08:27:44.163Z,77.40
2023-04-23T08:30:11.299Z,77.43
2023-04-23T08:32:39.899Z,77.49
2023-04-23T08:35:08.286Z,77.64
2023-04-23T08:37:35.204Z,77.69
2023-04-23T08:40:02.098Z,77.39
2023-04-23T08:42:43.132Z,77.73
2023-04-23T08:45:10.919Z,77.74
2023-04-23T08:47:40.815Z,77.43
2023-04-23T08:50:07.974Z,77.90
2023-04-23T08:52:36.616Z,77.55
2023-04-23T08:55:05.380Z,77.54
2023-04-23T08:57:32.285Z,77.19
2023-04-23T09:00:01.184Z,77.42
2023-04-23T09:02:28.463Z,77.28
2023-04-23T09:04:56.396Z,77.26
2023-04-23T09:07:23.490Z,77.02
2023-04-23T09:09:50.374Z,76.68
2023-04-23T09:12:17.238Z,76.72
2023-04-23T09:14:44.561Z,76.50
2023-04-23T09:17:11.633Z,76.39
2023-04-23T09:19:39.911Z,75.97
2023-04-23T09:22:07.995Z,76.04
2023-04-23T09:24:35.005Z,75.83
2023-04-23T09:27:03.014Z,75.67
2023-04-23T09:29:31.286Z,76.03
2023-04-23T09:32:09.993Z,76.51
2023-04-23T09:34:40.302Z,76.78
2023-04-23T09:37:11.253Z,76.96
2023-04-23T09:39:39.676Z,77.14
2023-04-23T09:42:08.654Z,77.08
2023-04-23T09:44:35.558Z,77.41
2023-04-23T09:47:09.966Z,77.84
2023-04-23T09:49:50.044Z,78.72
2023-04-23T09:52:18.058Z,79.10
2023-04-23T09:54:47.982Z,79.80
2023-04-23T09:57:15.044Z,79.79
2023-04-23T09:59:48.933Z,80.30
2023-04-23T10:02:20.274Z,80.55
2023-04-23T10:04:54.588Z,80.69
2023-04-23T10:07:25.418Z,80.78
2023-04-23T10:09:52.377Z,80.75
2023-04-23T10:12:40.996Z,80.70
2023-04-23T10:15:07.731Z,81.25
2023-04-23T10:17:36.766Z,81.07
2023-04-23T10:20:04.785Z,81.45
2023-04-23T10:22:33.870Z,81.49
2023-04-23T10:25:06.496Z,81.69
2023-04-23T10:27:44.562Z,81.69
2023-04-23T10:30:19.130Z,81.65
2023-04-23T10:32:48.848Z,81.50
2023-04-23T10:35:15.958Z,81.60
2023-04-23T10:37:44.942Z,81.95
2023-04-23T10:40:22.249Z,81.94
2023-04-23T10:42:49.831Z,81.95
2023-04-23T10:47:50.190Z,81.64
2023-04-23T10:50:28.709Z,81.55
2023-04-23T10:52:57.855Z,81.38
2023-04-23T10:55:27.210Z,81.22
2023-04-23T10:58:04.451Z,80.71
2023-04-23T11:00:43.612Z,80.48
2023-04-23T11:03:29.480Z,80.18
2023-04-23T11:05:56.517Z,80.14
2023-04-23T11:08:23.410Z,79.67
2023-04-23T11:10:58.528Z,79.47
2023-04-23T11:13:27.012Z,79.19
2023-04-23T11:16:16.802Z,78.78
2023-04-23T11:19:04.009Z,78.63
2023-04-23T11:22:08.505Z,77.74
2023-04-23T11:24:43.565Z,76.90
2023-04-23T11:27:12.768Z,76.77
2023-04-23T11:29:41.236Z,75.80
2023-04-23T11:32:13.123Z,75.56
2023-04-23T11:34:41.881Z,75.74
2023-04-23T11:37:11.168Z,75.22
2023-04-23T11:39:39.099Z,75.31
2023-04-23T11:42:10.382Z,75.05
2023-04-23T11:44:44.774Z,75.76
2023-04-23T11:47:13.186Z,75.48
2023-04-23T11:49:42.964Z,75.81
2023-04-23T11:52:11.283Z,75.62
2023-04-23T11:54:41.087Z,75.48
2023-04-23T11:57:08.681Z,76.05
2023-04-23T11:59:35.594Z,76.22
2023-04-23T12:02:02.436Z,76.11
2023-04-23T12:04:31.141Z,76.91
2023-04-23T12:06:59.344Z,76.96
2023-04-23T12:09:27.985Z,77.01
2023-04-23T12:11:56.437Z,76.92
2023-04-23T12:14:31.366Z,76.76
2023-04-23T12:16:59.652Z,76.91
2023-04-23T12:19:28.683Z,76.62
2023-04-23T12:21:56.528Z,76.74
2023-04-23T12:24:28.138Z,76.77
2023-04-23T12:26:58.673Z,76.96
2023-04-23T12:29:26.374Z,76.63
2023-04-23T12:31:54.161Z,76.48
2023-04-23T12:34:21.738Z,76.10
2023-04-23T12:36:52.860Z,75.85
2023-04-23T12:39:30.077Z,75.43
2023-04-23T12:42:00.264Z,75.51
2023-04-23T12:44:27.626Z,75.24
2023-04-23T12:47:05.128Z,75.23
2023-04-23T12:49:33.167Z,75.14
2023-04-23T12:52:01.820Z,75.11
2023-04-23T12:54:30.136Z,75.12
2023-04-23T12:56:57.554Z,75.12
2023-04-23T12:59:24.393Z,74.65
2023-04-23T13:01:51.625Z,74.64
2023-04-23T13:04:18.705Z,74.38
2023-04-23T13:06:45.600Z,74.70
2023-04-23T13:09:12.496Z,74.48
2023-04-23T13:11:39.958Z,74.04
2023-04-23T13:14:07.744Z,74.06
2023-04-23T13:16:34.673Z,74.18
2023-04-23T13:19:01.689Z,73.91
2023-04-23T13:21:28.602Z,73.74
2023-04-23T13:23:57.059Z,73.56
2023-04-23T13:26:23.990Z,73.43
2023-04-23T13:28:50.983Z,73.42
2023-04-23T13:31:18.148Z,72.95
2023-04-23T13:33:45.076Z,72.87
2023-04-23T13:36:11.911Z,72.65
2023-04-23T13:38:38.768Z,72.14
2023-04-23T13:41:05.736Z,71.47
2023-04-23T13:43:32.595Z,71.20
2023-04-23T13:46:01.327Z,70.74
2023-04-23T13:48:31.604Z,70.93
2023-04-23T13:50:59.206Z,70.58
2023-04-23T13:53:26.664Z,70.00
2023-04-23T13:55:57.072Z,68.77
2023-04-23T13:58:24.164Z,67.61
2023-04-23T14:00:52.028Z,66.40
2023-04-23T14:03:20.442Z,65.33
2023-04-23T14:05:47.737Z,64.59
2023-04-23T14:08:14.511Z,65.07
2023-04-23T14:10:43.718Z,64.83
2023-04-23T14:13:11.058Z,64.38
2023-04-23T14:15:38.074Z,64.13
2023-04-23T14:18:05.912Z,63.86
2023-04-23T14:20:33.028Z,63.80
2023-04-23T14:23:06.514Z,62.75
2023-04-23T14:25:41.109Z,61.95
2023-04-23T14:28:35.998Z,61.41
2023-04-23T14:31:03.009Z,61.06
2023-04-23T14:33:29.845Z,60.03
2023-04-23T14:35:57.221Z,58.24
2023-04-23T14:38:24.421Z,57.17
2023-04-23T14:40:51.376Z,56.04
2023-04-23T14:43:18.240Z,54.57
2023-04-23T14:45:45.259Z,53.50
2023-04-23T14:48:12.160Z,53.33
2023-04-23T14:50:38.970Z,52.57
2023-04-23T14:53:07.853Z,51.90
2023-04-23T14:55:34.757Z,51.40
2023-04-23T14:58:01.813Z,51.30
2023-04-23T15:00:28.761Z,50.78
2023-04-23T15:02:56.926Z,50.24
2023-04-23T15:05:24.164Z,50.13
2023-04-23T15:07:52.076Z,49.14
2023-04-23T15:10:21.073Z,47.95
2023-04-23T15:12:56.951Z,47.50
2023-04-23T15:15:48.002Z,46.64
2023-04-23T15:18:17.060Z,46.90
2023-04-23T15:20:44.538Z,46.44
2023-04-23T15:23:13.995Z,47.09
2023-04-23T15:25:41.171Z,47.25
2023-04-23T15:28:08.056Z,47.80
2023-04-23T15:30:35.104Z,47.92
2023-04-23T15:33:02.054Z,47.87
2023-04-23T15:35:29.042Z,47.92
2023-04-23T15:37:55.869Z,47.49
2023-04-23T15:40:23.000Z,46.91
2023-04-23T15:42:50.648Z,46.39
2023-04-23T15:45:17.658Z,46.12
2023-04-23T15:47:44.496Z,46.33
2023-04-23T15:50:11.701Z,46.48
2023-04-23T15:52:39.937Z,45.93
2023-04-23T15:55:07.425Z,45.74
2023-04-23T15:57:34.166Z,45.75
2023-04-23T16:00:01.477Z,45.82
2023-04-23T16:02:38.966Z,45.62
2023-04-23T16:05:06.118Z,45.54
2023-04-23T16:07:33.073Z,46.27
2023-04-23T16:09:59.903Z,46.22
2023-04-23T16:12:26.696Z,46.41
2023-04-23T16:14:53.888Z,46.69
2023-04-23T16:17:20.905Z,46.77
2023-04-23T16:19:48.259Z,47.01
2023-04-23T16:22:16.429Z,47.47
2023-04-23T16:24:43.362Z,47.31
2023-04-23T16:27:11.138Z,47.32
2023-04-23T16:29:39.024Z,47.41
2023-04-23T16:32:07.534Z,46.99
2023-04-23T16:34:34.531Z,47.22
2023-04-23T16:37:01.348Z,46.69
2023-04-23T16:39:28.219Z,46.75
2023-04-23T16:41:55.190Z,46.86
2023-04-23T16:44:21.953Z,47.33
2023-04-23T16:46:48.738Z,47.42
2023-04-23T16:49:15.610Z,47.81
2023-04-23T16:51:42.370Z,48.35
2023-04-23T16:54:10.271Z,48.38
2023-04-23T16:56:37.629Z,49.15
2023-04-23T16:59:05.035Z,48.90
2023-04-23T17:01:32.008Z,46.18
2023-04-23T17:03:59.092Z,43.90
2023-04-23T17:06:29.415Z,42.67
2023-04-23T17:09:02.026Z,42.57
2023-04-23T17:11:30.119Z,43.95
2023-04-23T17:14:00.033Z,45.02
2023-04-23T17:16:27.432Z,45.89
2023-04-23T17:18:54.834Z,46.34
2023-04-23T17:21:21.694Z,46.65
2023-04-23T17:23:48.508Z,47.02
2023-04-23T17:26:15.702Z,47.35
2023-04-23T17:28:42.749Z,47.22
2023-04-23T17:31:09.620Z,46.51
2023-04-23T17:33:36.561Z,45.71
2023-04-23T17:36:03.509Z,45.53
2023-04-23T17:38:30.697Z,44.92
2023-04-23T17:40:58.874Z,44.32
2023-04-23T17:49:58.947Z,45.17
2023-04-23T17:52:25.883Z,46.07
2023-04-23T17:54:52.795Z,47.33
2023-04-23T17:57:19.934Z,47.72
2023-04-23T17:59:46.861Z,48.55
2023-04-23T18:02:13.757Z,48.15
2023-04-23T18:04:40.838Z,48.45
2023-04-23T18:07:07.557Z,49.22
2023-04-23T18:09:34.341Z,51.35
2023-04-23T18:12:01.184Z,51.53
2023-04-23T18:14:27.976Z,52.18
2023-04-23T18:16:54.886Z,52.30
2023-04-23T18:19:21.880Z,52.42
2023-04-23T18:21:50.072Z,52.58
2023-04-23T18:24:18.821Z,52.92
2023-04-23T18:26:45.684Z,53.68
2023-04-23T18:29:12.689Z,54.26
2023-04-23T18:31:39.414Z,54.88
2023-04-23T18:34:09.967Z,54.29
2023-04-23T18:36:38.034Z,54.81
2023-04-23T18:39:05.034Z,54.53
2023-04-23T18:41:31.854Z,54.74
2023-04-23T18:44:00.317Z,54.60
2023-04-23T18:46:28.360Z,55.43
2023-04-23T18:49:19.222Z,55.67
2023-04-23T18:51:55.482Z,55.73
2023-04-23T18:54:26.138Z,55.79
2023-04-23T18:56:53.586Z,56.19
2023-04-23T18:59:20.491Z,56.46
2023-04-23T19:01:50.450Z,56.83
2023-04-23T19:04:17.527Z,57.06
2023-04-23T19:06:44.716Z,57.06
2023-04-23T19:09:11.697Z,57.42
2023-04-23T19:11:38.911Z,58.05
2023-04-23T19:14:05.821Z,57.94
2023-04-23T19:16:32.829Z,58.53
2023-04-23T19:18:59.702Z,58.83
2023-04-23T19:21:26.663Z,58.67
2023-04-23T19:23:54.327Z,59.16
2023-04-23T19:26:21.235Z,58.94
2023-04-23T19:28:48.029Z,59.14
2023-04-23T19:31:15.181Z,59.19
2023-04-23T19:33:45.543Z,59.37
2023-04-23T19:36:12.383Z,59.58
2023-04-23T19:38:39.307Z,59.78
2023-04-23T19:41:07.295Z,60.00
2023-04-23T19:43:34.440Z,60.01
2023-04-23T19:46:01.242Z,60.02
2023-04-23T19:48:28.505Z,60.41
2023-04-23T19:50:55.542Z,60.73
2023-04-23T19:53:22.322Z,60.58
2023-04-23T19:55:49.340Z,60.82
2023-04-23T19:58:17.887Z,60.86
2023-04-23T20:00:46.059Z,60.85
2023-04-23T20:03:13.238Z,60.98
2023-04-23T20:05:42.521Z,61.21
2023-04-23T20:08:15.561Z,61.35
2023-04-23T20:10:43.326Z,61.70
2023-04-23T20:13:10.102Z,61.92
2023-04-23T20:15:36.969Z,61.84
2023-04-23T20:18:04.021Z,61.93
2023-04-23T20:20:30.814Z,61.93
2023-04-23T20:22:57.685Z,62.34
2023-04-23T20:25:25.979Z,62.26
2023-04-23T20:27:53.182Z,62.51
2023-04-23T20:30:20.028Z,62.29
2023-04-23T20:32:46.945Z,62.72
2023-04-23T20:35:13.999Z,62.66
2023-04-23T20:37:41.026Z,62.81
2023-04-23T20:40:08.504Z,62.95
2023-04-23T20:42:39.354Z,63.59
2023-04-23T20:45:09.730Z,63.97
2023-04-23T20:47:37.005Z,64.14
2023-04-23T20:50:04.163Z,64.40
2023-04-23T20:52:31.090Z,64.66
2023-04-23T20:54:57.902Z,64.48
2023-04-23T20:57:24.841Z,64.77
2023-04-23T20:59:51.772Z,64.99
2023-04-23T21:02:19.050Z,65.14
2023-04-23T21:04:45.921Z,65.27
2023-04-23T21:07:12.751Z,65.64
2023-04-23T21:09:39.691Z,66.19
2023-04-23T21:12:07.310Z,66.42
2023-04-23T21:14:34.518Z,66.75
2023-04-23T21:17:01.986Z,66.80
2023-04-23T21:19:28.982Z,67.07
2023-04-23T21:21:55.789Z,67.59
2023-04-23T21:24:22.589Z,67.80
2023-04-23T21:26:49.471Z,68.08
2023-04-23T21:29:16.246Z,67.93
2023-04-23T21:31:46.481Z,68.44
2023-04-23T21:34:16.483Z,68.68
2023-04-23T21:36:44.945Z,68.51
2023-04-23T21:39:13.281Z,68.25
2023-04-23T21:41:40.413Z,68.43
2023-04-23T21:44:07.445Z,68.68
2023-04-23T21:46:34.261Z,68.76
2023-04-23T21:49:01.066Z,68.82
2023-04-23T21:51:28.293Z,68.76
2023-04-23T21:53:55.048Z,68.38
2023-04-23T21:56:21.918Z,68.63
2023-04-23T21:58:48.842Z,68.94
2023-04-23T22:01:16.674Z,69.05
2023-04-23T22:03:46.952Z,69.39
2023-04-23T22:06:15.855Z,69.04
2023-04-23T22:08:44.886Z,69.22
2023-04-23T22:11:12.136Z,69.07
2023-04-23T22:13:39.160Z,69.36
2023-04-23T22:16:10.834Z,68.85
2023-04-23T22:18:43.516Z,69.14
2023-04-23T22:21:10.390Z,69.30
2023-04-23T22:23:37.213Z,69.58
2023-04-23T22:26:04.222Z,69.73
2023-04-23T22:28:31.096Z,69.56
2023-04-23T22:30:58.018Z,69.34
2023-04-23T22:33:26.723Z,69.60
2023-04-23T22:35:53.588Z,69.69
2023-04-23T22:38:20.480Z,69.95
2023-04-23T22:40:47.292Z,70.16
2023-04-23T22:43:14.116Z,70.14
2023-04-23T22:45:40.924Z,70.26
2023-04-23T22:48:07.814Z,70.27
2023-04-23T22:50:34.577Z,70.10
2023-04-23T22:53:01.463Z,70.35
2023-04-23T22:55:28.257Z,70.37
2023-04-23T22:57:55.026Z,70.16
2023-04-23T23:00:22.068Z,70.31
2023-04-23T23:02:48.990Z,70.25
2023-04-23T23:05:15.823Z,70.27
2023-04-23T23:07:42.582Z,70.05
2023-04-23T23:10:09.865Z,70.15
2023-04-23T23:12:37.285Z,70.97
2023-04-23T23:15:04.353Z,70.97
2023-04-23T23:17:31.167Z,71.00
2023-04-23T23:19:57.934Z,71.34
2023-04-23T23:22:24.920Z,71.44
2023-04-23T23:24:51.711Z,71.59
2023-04-23T23:27:18.547Z,71.84
2023-04-23T23:29:45.468Z,72.08
2023-04-23T23:32:12.291Z,71.90
2023-04-23T23:34:39.085Z,72.13
2023-04-23T23:37:05.965Z,72.02
2023-04-23T23:39:32.744Z,72.16
2023-04-23T23:41:59.944Z,72.01
2023-04-23T23:44:26.820Z,71.88
2023-04-23T23:46:53.617Z,72.21
2023-04-23T23:49:20.898Z,72.15
2023-04-23T23:51:47.815Z,72.18
2023-04-23T23:54:14.779Z,72.12
2023-04-23T23:56:41.768Z,72.00
2023-04-23T23:59:08.948Z,72.39
